AHY7149 UKOO-LTBS
Flight info
| Callsign | AHY7149 |
|---|---|
| Flight time | 1h 28m |
| Altitude | 38000 |
| Route | N0450F380 HONFA P156 DIGAM M856 RAKUR UM856 BAG UP29 HALIL UR32 KFK UW78 CRD W78 BALSU UW78 RIVBU |
| Aircraft | A320/M-VGDW/C |
Departure
| Time | 2026-05-08 07:38 |
|---|---|
| Airport | Odesa International Airport (UKOO) |
Arrival
| Time | 2026-05-08 09:06 |
|---|---|
| Airport | Dalaman International Airport (LTBS) |
| Time | Latitude | Longitude | Altitude | Speed | Heading |
|---|---|---|---|---|---|
| 2026-05-08 07:23 | 46.44145 | 30.67391 | 178 ft | 0 kts | 81° |
| 2026-05-08 07:34 | 46.44144 | 30.67387 | 178 ft | 2 kts | 81° |
| 2026-05-08 07:34 | 46.44142 | 30.67366 | 178 ft | 2 kts | 80° |
| 2026-05-08 07:34 | 46.44139 | 30.67345 | 178 ft | 2 kts | 81° |
| 2026-05-08 07:34 | 46.44136 | 30.67323 | 178 ft | 2 kts | 90° |
| 2026-05-08 07:35 | 46.44142 | 30.67302 | 178 ft | 2 kts | 136° |
| 2026-05-08 07:35 | 46.44152 | 30.67293 | 178 ft | 0 kts | 167° |
| 2026-05-08 07:35 | 46.44159 | 30.67292 | 178 ft | 1 kts | 172° |
| 2026-05-08 07:35 | 46.44160 | 30.67292 | 178 ft | 0 kts | 172° |
| 2026-05-08 07:36 | 46.44156 | 30.67293 | 178 ft | 3 kts | 172° |
| 2026-05-08 07:37 | 46.44081 | 30.67309 | 178 ft | 13 kts | 171° |
| 2026-05-08 07:37 | 46.43993 | 30.67255 | 178 ft | 17 kts | 247° |
| 2026-05-08 07:37 | 46.43953 | 30.67062 | 178 ft | 22 kts | 254° |
| 2026-05-08 07:37 | 46.43887 | 30.66827 | 178 ft | 27 kts | 214° |
| 2026-05-08 07:38 | 46.43517 | 30.66943 | 178 ft | 101 kts | 163° |
| 2026-05-08 07:38 | 46.42602 | 30.67339 | 461 ft | 157 kts | 164° |
| 2026-05-08 07:38 | 46.41600 | 30.67771 | 1509 ft | 157 kts | 164° |
| 2026-05-08 07:38 | 46.40576 | 30.68222 | 2559 ft | 161 kts | 165° |
| 2026-05-08 07:39 | 46.39445 | 30.68715 | 3337 ft | 182 kts | 166° |
| 2026-05-08 07:39 | 46.38178 | 30.69257 | 4189 ft | 201 kts | 166° |
| 2026-05-08 07:39 | 46.36807 | 30.69845 | 5057 ft | 219 kts | 165° |
| 2026-05-08 07:39 | 46.35292 | 30.70495 | 5916 ft | 238 kts | 165° |
| 2026-05-08 07:40 | 46.33668 | 30.71160 | 6753 ft | 256 kts | 167° |
| 2026-05-08 07:40 | 46.31899 | 30.71838 | 7660 ft | 272 kts | 167° |
| 2026-05-08 07:40 | 46.30068 | 30.72520 | 8746 ft | 279 kts | 167° |
| 2026-05-08 07:40 | 46.28196 | 30.73214 | 9841 ft | 284 kts | 167° |
| 2026-05-08 07:41 | 46.26285 | 30.73922 | 10830 ft | 292 kts | 166° |
| 2026-05-08 07:41 | 46.24269 | 30.74670 | 11521 ft | 311 kts | 166° |
| 2026-05-08 07:41 | 46.22133 | 30.75467 | 12134 ft | 330 kts | 166° |
| 2026-05-08 07:41 | 46.19881 | 30.76310 | 12897 ft | 342 kts | 166° |
| 2026-05-08 07:42 | 46.17554 | 30.77181 | 13885 ft | 347 kts | 166° |
| 2026-05-08 07:42 | 46.15228 | 30.78049 | 14854 ft | 351 kts | 166° |
| 2026-05-08 07:42 | 46.12875 | 30.78926 | 15771 ft | 356 kts | 166° |
| 2026-05-08 07:42 | 46.10488 | 30.79814 | 16660 ft | 360 kts | 166° |
| 2026-05-08 07:43 | 46.08036 | 30.80725 | 17532 ft | 365 kts | 166° |
| 2026-05-08 07:43 | 46.05578 | 30.81637 | 18364 ft | 370 kts | 166° |
| 2026-05-08 07:43 | 46.03088 | 30.82560 | 19154 ft | 375 kts | 166° |
| 2026-05-08 07:43 | 46.00568 | 30.83493 | 19906 ft | 380 kts | 166° |
| 2026-05-08 07:44 | 45.97997 | 30.84447 | 20688 ft | 384 kts | 166° |
| 2026-05-08 07:44 | 45.95423 | 30.85399 | 21466 ft | 388 kts | 166° |
| 2026-05-08 07:44 | 45.92817 | 30.86359 | 22168 ft | 394 kts | 166° |
| 2026-05-08 07:44 | 45.90140 | 30.87342 | 22830 ft | 400 kts | 166° |
| 2026-05-08 07:45 | 45.87441 | 30.88340 | 23452 ft | 407 kts | 166° |
| 2026-05-08 07:45 | 45.84683 | 30.89368 | 24072 ft | 414 kts | 166° |
| 2026-05-08 07:45 | 45.81905 | 30.90410 | 24697 ft | 419 kts | 166° |
| 2026-05-08 07:45 | 45.79060 | 30.91477 | 25316 ft | 424 kts | 166° |
| 2026-05-08 07:46 | 45.76205 | 30.92545 | 25910 ft | 429 kts | 166° |
| 2026-05-08 07:46 | 45.73320 | 30.93620 | 26478 ft | 435 kts | 166° |
| 2026-05-08 07:46 | 45.70402 | 30.94709 | 27027 ft | 439 kts | 166° |
| 2026-05-08 07:46 | 45.67442 | 30.95815 | 27558 ft | 444 kts | 166° |
| 2026-05-08 07:47 | 45.64444 | 30.96933 | 28067 ft | 449 kts | 166° |
| 2026-05-08 07:47 | 45.61426 | 30.98057 | 28548 ft | 453 kts | 166° |
| 2026-05-08 07:47 | 45.58344 | 30.99203 | 29005 ft | 458 kts | 166° |
| 2026-05-08 07:47 | 45.55297 | 31.00333 | 29421 ft | 462 kts | 166° |
| 2026-05-08 07:48 | 45.52157 | 31.01497 | 29837 ft | 466 kts | 166° |
| 2026-05-08 07:48 | 45.49035 | 31.02652 | 30232 ft | 470 kts | 166° |
| 2026-05-08 07:48 | 45.45893 | 31.03813 | 30619 ft | 473 kts | 166° |
| 2026-05-08 07:48 | 45.42690 | 31.04996 | 30993 ft | 475 kts | 166° |
| 2026-05-08 07:49 | 45.39519 | 31.06164 | 31339 ft | 478 kts | 166° |
| 2026-05-08 07:49 | 45.36287 | 31.07354 | 31684 ft | 480 kts | 166° |
| 2026-05-08 07:49 | 45.33052 | 31.08544 | 32131 ft | 479 kts | 166° |
| 2026-05-08 07:49 | 45.29844 | 31.09723 | 32598 ft | 478 kts | 166° |
| 2026-05-08 07:50 | 45.26656 | 31.10893 | 33039 ft | 477 kts | 166° |
| 2026-05-08 07:50 | 45.23459 | 31.12053 | 33471 ft | 476 kts | 167° |
| 2026-05-08 07:50 | 45.20250 | 31.13197 | 33899 ft | 475 kts | 167° |
| 2026-05-08 07:50 | 45.17063 | 31.14327 | 34319 ft | 475 kts | 167° |
| 2026-05-08 07:51 | 45.13887 | 31.15449 | 34743 ft | 473 kts | 167° |
| 2026-05-08 07:51 | 45.10717 | 31.16569 | 35158 ft | 472 kts | 167° |
| 2026-05-08 07:51 | 45.07523 | 31.17698 | 35567 ft | 471 kts | 167° |
| 2026-05-08 07:51 | 45.04387 | 31.18804 | 35966 ft | 470 kts | 167° |
| 2026-05-08 07:52 | 45.01254 | 31.19908 | 36349 ft | 468 kts | 167° |
| 2026-05-08 07:52 | 44.98071 | 31.21029 | 36684 ft | 468 kts | 167° |
| 2026-05-08 07:52 | 44.94928 | 31.22135 | 36950 ft | 469 kts | 167° |
| 2026-05-08 07:52 | 44.91756 | 31.23250 | 37201 ft | 471 kts | 167° |
| 2026-05-08 07:53 | 44.88614 | 31.24354 | 37428 ft | 472 kts | 167° |
| 2026-05-08 07:53 | 44.85419 | 31.25474 | 37641 ft | 474 kts | 167° |
| 2026-05-08 07:53 | 44.82258 | 31.26581 | 37853 ft | 475 kts | 167° |
| 2026-05-08 07:53 | 44.79042 | 31.27706 | 38054 ft | 476 kts | 167° |
| 2026-05-08 07:54 | 44.75836 | 31.28826 | 38115 ft | 477 kts | 167° |
| 2026-05-08 07:54 | 44.69396 | 31.31073 | 38120 ft | 478 kts | 167° |
| 2026-05-08 07:55 | 44.62968 | 31.33311 | 38122 ft | 478 kts | 167° |
| 2026-05-08 07:55 | 44.56564 | 31.35535 | 38122 ft | 478 kts | 167° |
| 2026-05-08 07:56 | 44.50109 | 31.37772 | 38122 ft | 479 kts | 167° |
| 2026-05-08 07:56 | 44.43673 | 31.39996 | 38122 ft | 479 kts | 167° |
| 2026-05-08 07:57 | 44.37171 | 31.42236 | 38123 ft | 484 kts | 167° |
| 2026-05-08 07:57 | 44.30604 | 31.44495 | 38122 ft | 485 kts | 167° |
| 2026-05-08 07:58 | 44.24053 | 31.46761 | 38122 ft | 486 kts | 167° |
| 2026-05-08 07:58 | 44.17532 | 31.49011 | 38122 ft | 486 kts | 167° |
| 2026-05-08 07:59 | 44.10974 | 31.51265 | 38122 ft | 487 kts | 167° |
| 2026-05-08 07:59 | 44.04447 | 31.53504 | 38122 ft | 487 kts | 167° |
| 2026-05-08 08:00 | 43.97887 | 31.55747 | 38122 ft | 487 kts | 167° |
| 2026-05-08 08:00 | 43.91336 | 31.57983 | 38122 ft | 487 kts | 167° |
| 2026-05-08 08:01 | 43.84779 | 31.60215 | 38122 ft | 487 kts | 167° |
| 2026-05-08 08:01 | 43.78193 | 31.62451 | 38122 ft | 488 kts | 167° |
| 2026-05-08 08:02 | 43.71624 | 31.64676 | 38122 ft | 488 kts | 167° |
| 2026-05-08 08:02 | 43.65064 | 31.66894 | 38122 ft | 488 kts | 167° |
| 2026-05-08 08:03 | 43.58495 | 31.69109 | 38122 ft | 488 kts | 167° |
| 2026-05-08 08:03 | 43.51924 | 31.71317 | 38122 ft | 488 kts | 167° |
| 2026-05-08 08:04 | 43.45279 | 31.73543 | 38122 ft | 488 kts | 168° |
| 2026-05-08 08:04 | 43.38716 | 31.75705 | 38122 ft | 489 kts | 168° |
| 2026-05-08 08:05 | 43.32103 | 31.77869 | 38122 ft | 489 kts | 168° |
| 2026-05-08 08:05 | 43.25514 | 31.80023 | 38122 ft | 489 kts | 168° |
| 2026-05-08 08:06 | 43.18926 | 31.82172 | 38122 ft | 489 kts | 168° |
| 2026-05-08 08:06 | 43.12310 | 31.84325 | 38125 ft | 490 kts | 168° |
| 2026-05-08 08:07 | 43.05706 | 31.86470 | 38132 ft | 490 kts | 168° |
| 2026-05-08 08:07 | 42.99064 | 31.88621 | 38143 ft | 490 kts | 168° |
| 2026-05-08 08:08 | 42.92435 | 31.90764 | 38148 ft | 491 kts | 168° |
| 2026-05-08 08:08 | 42.85768 | 31.92911 | 38149 ft | 491 kts | 168° |
| 2026-05-08 08:09 | 42.79171 | 31.95033 | 38151 ft | 492 kts | 169° |
| 2026-05-08 08:09 | 42.75798 | 31.95695 | 38148 ft | 489 kts | 180° |
| 2026-05-08 08:09 | 42.72409 | 31.95544 | 38151 ft | 485 kts | 190° |
| 2026-05-08 08:10 | 42.65894 | 31.93442 | 38155 ft | 481 kts | 199° |
| 2026-05-08 08:10 | 42.59532 | 31.90916 | 38153 ft | 481 kts | 200° |
| 2026-05-08 08:11 | 42.53106 | 31.88410 | 38153 ft | 481 kts | 199° |
| 2026-05-08 08:11 | 42.46675 | 31.85947 | 38152 ft | 481 kts | 199° |
| 2026-05-08 08:12 | 42.40251 | 31.83506 | 38152 ft | 482 kts | 199° |
| 2026-05-08 08:12 | 42.33826 | 31.81074 | 38152 ft | 482 kts | 199° |
| 2026-05-08 08:13 | 42.27390 | 31.78645 | 38152 ft | 482 kts | 199° |
| 2026-05-08 08:13 | 42.20958 | 31.76224 | 38152 ft | 482 kts | 199° |
| 2026-05-08 08:14 | 42.14487 | 31.73793 | 38152 ft | 482 kts | 199° |
| 2026-05-08 08:14 | 42.08009 | 31.71363 | 38152 ft | 483 kts | 199° |
| 2026-05-08 08:15 | 42.01599 | 31.68965 | 38152 ft | 483 kts | 199° |
| 2026-05-08 08:15 | 41.95307 | 31.65915 | 38152 ft | 479 kts | 206° |
| 2026-05-08 08:16 | 41.89194 | 31.62507 | 38151 ft | 478 kts | 207° |
| 2026-05-08 08:16 | 41.83041 | 31.59107 | 38152 ft | 479 kts | 206° |
| 2026-05-08 08:17 | 41.76889 | 31.55749 | 38152 ft | 478 kts | 206° |
| 2026-05-08 08:17 | 41.70761 | 31.52426 | 38152 ft | 478 kts | 206° |
| 2026-05-08 08:18 | 41.64610 | 31.49100 | 38152 ft | 477 kts | 206° |
| 2026-05-08 08:18 | 41.58448 | 31.45779 | 38152 ft | 477 kts | 206° |
| 2026-05-08 08:19 | 41.52276 | 31.42456 | 38152 ft | 477 kts | 207° |
| 2026-05-08 08:19 | 41.46166 | 31.39175 | 38152 ft | 477 kts | 207° |
| 2026-05-08 08:20 | 41.40045 | 31.35893 | 38152 ft | 477 kts | 207° |
| 2026-05-08 08:20 | 41.33846 | 31.32576 | 38152 ft | 477 kts | 206° |
| 2026-05-08 08:21 | 41.27717 | 31.29307 | 38152 ft | 477 kts | 206° |
| 2026-05-08 08:21 | 41.21585 | 31.26040 | 38152 ft | 477 kts | 206° |
| 2026-05-08 08:22 | 41.15477 | 31.22795 | 38152 ft | 476 kts | 206° |
| 2026-05-08 08:22 | 41.09327 | 31.19531 | 38152 ft | 476 kts | 206° |
| 2026-05-08 08:23 | 41.03208 | 31.16292 | 38146 ft | 476 kts | 206° |
| 2026-05-08 08:23 | 40.97101 | 31.13064 | 38134 ft | 476 kts | 206° |
| 2026-05-08 08:24 | 40.90950 | 31.09820 | 38128 ft | 476 kts | 206° |
| 2026-05-08 08:24 | 40.84827 | 31.06596 | 38124 ft | 476 kts | 206° |
| 2026-05-08 08:25 | 40.78669 | 31.03362 | 38124 ft | 475 kts | 206° |
| 2026-05-08 08:25 | 40.72549 | 31.00155 | 38125 ft | 476 kts | 207° |
| 2026-05-08 08:26 | 40.66431 | 30.96955 | 38126 ft | 476 kts | 207° |
| 2026-05-08 08:26 | 40.60319 | 30.93763 | 38126 ft | 476 kts | 207° |
| 2026-05-08 08:27 | 40.54176 | 30.90563 | 38124 ft | 475 kts | 207° |
| 2026-05-08 08:27 | 40.48039 | 30.87370 | 38124 ft | 475 kts | 207° |
| 2026-05-08 08:28 | 40.41922 | 30.84196 | 38124 ft | 475 kts | 207° |
| 2026-05-08 08:28 | 40.35801 | 30.81026 | 38124 ft | 475 kts | 207° |
| 2026-05-08 08:29 | 40.29675 | 30.77859 | 38124 ft | 475 kts | 207° |
| 2026-05-08 08:29 | 40.23550 | 30.74698 | 38136 ft | 475 kts | 207° |
| 2026-05-08 08:30 | 40.17408 | 30.71535 | 38164 ft | 474 kts | 207° |
| 2026-05-08 08:30 | 40.08257 | 30.66834 | 38210 ft | 474 kts | 207° |
| 2026-05-08 08:31 | 40.02148 | 30.63704 | 38223 ft | 473 kts | 207° |
| 2026-05-08 08:31 | 39.96009 | 30.60569 | 38228 ft | 475 kts | 208° |
| 2026-05-08 08:32 | 39.89856 | 30.57423 | 38231 ft | 476 kts | 208° |
| 2026-05-08 08:32 | 39.83718 | 30.54294 | 38230 ft | 476 kts | 208° |
| 2026-05-08 08:33 | 39.77585 | 30.51174 | 38230 ft | 476 kts | 208° |
| 2026-05-08 08:33 | 39.71446 | 30.48059 | 38231 ft | 476 kts | 208° |
| 2026-05-08 08:34 | 39.65281 | 30.44936 | 38231 ft | 476 kts | 208° |
| 2026-05-08 08:34 | 39.59130 | 30.41824 | 38228 ft | 476 kts | 208° |
| 2026-05-08 08:35 | 39.52998 | 30.38731 | 38222 ft | 477 kts | 208° |
| 2026-05-08 08:35 | 39.46841 | 30.35630 | 38213 ft | 477 kts | 208° |
| 2026-05-08 08:36 | 39.40669 | 30.32525 | 38210 ft | 479 kts | 208° |
| 2026-05-08 08:36 | 39.34475 | 30.29417 | 38207 ft | 479 kts | 208° |
| 2026-05-08 08:37 | 39.28241 | 30.26297 | 38206 ft | 480 kts | 208° |
| 2026-05-08 08:37 | 39.22036 | 30.23197 | 38206 ft | 481 kts | 208° |
| 2026-05-08 08:38 | 39.15824 | 30.20098 | 38205 ft | 483 kts | 208° |
| 2026-05-08 08:38 | 39.09547 | 30.16974 | 38206 ft | 484 kts | 208° |
| 2026-05-08 08:39 | 39.03299 | 30.13869 | 38206 ft | 486 kts | 208° |
| 2026-05-08 08:39 | 38.97010 | 30.10750 | 38206 ft | 487 kts | 209° |
| 2026-05-08 08:40 | 38.90696 | 30.07624 | 38205 ft | 489 kts | 209° |
| 2026-05-08 08:40 | 38.84332 | 30.04478 | 38204 ft | 490 kts | 209° |
| 2026-05-08 08:41 | 38.77970 | 30.01339 | 38205 ft | 492 kts | 210° |
| 2026-05-08 08:41 | 38.71607 | 29.98214 | 38206 ft | 494 kts | 210° |
| 2026-05-08 08:42 | 38.65207 | 29.95067 | 38207 ft | 496 kts | 210° |
| 2026-05-08 08:42 | 38.58785 | 29.91915 | 38208 ft | 497 kts | 211° |
| 2026-05-08 08:43 | 38.52314 | 29.88745 | 38212 ft | 498 kts | 211° |
| 2026-05-08 08:43 | 38.45884 | 29.85605 | 38216 ft | 499 kts | 211° |
| 2026-05-08 08:44 | 38.39424 | 29.82454 | 38219 ft | 500 kts | 211° |
| 2026-05-08 08:44 | 38.32941 | 29.79305 | 38220 ft | 501 kts | 211° |
| 2026-05-08 08:45 | 38.26448 | 29.76153 | 38220 ft | 501 kts | 211° |
| 2026-05-08 08:45 | 38.20003 | 29.73033 | 38210 ft | 496 kts | 211° |
| 2026-05-08 08:46 | 38.16768 | 29.71466 | 38017 ft | 495 kts | 211° |
| 2026-05-08 08:46 | 38.13583 | 29.69928 | 37769 ft | 491 kts | 211° |
| 2026-05-08 08:46 | 38.10438 | 29.68408 | 37513 ft | 488 kts | 211° |
| 2026-05-08 08:46 | 38.07274 | 29.66880 | 37114 ft | 483 kts | 210° |
| 2026-05-08 08:47 | 38.04170 | 29.65381 | 36582 ft | 479 kts | 210° |
| 2026-05-08 08:47 | 38.01085 | 29.63892 | 35947 ft | 477 kts | 210° |
| 2026-05-08 08:47 | 37.97990 | 29.62395 | 35239 ft | 475 kts | 209° |
| 2026-05-08 08:47 | 37.94946 | 29.60925 | 34502 ft | 474 kts | 209° |
| 2026-05-08 08:48 | 37.91867 | 29.59442 | 33761 ft | 471 kts | 208° |
| 2026-05-08 08:48 | 37.88813 | 29.57975 | 32971 ft | 470 kts | 208° |
| 2026-05-08 08:48 | 37.85820 | 29.56538 | 32092 ft | 471 kts | 207° |
| 2026-05-08 08:48 | 37.82730 | 29.55054 | 31168 ft | 472 kts | 206° |
| 2026-05-08 08:49 | 37.79676 | 29.53594 | 30576 ft | 465 kts | 206° |
| 2026-05-08 08:49 | 37.76718 | 29.52185 | 29999 ft | 459 kts | 206° |
| 2026-05-08 08:49 | 37.73737 | 29.50765 | 29398 ft | 454 kts | 206° |
| 2026-05-08 08:49 | 37.70816 | 29.49375 | 28805 ft | 449 kts | 206° |
| 2026-05-08 08:50 | 37.67918 | 29.47994 | 28215 ft | 444 kts | 206° |
| 2026-05-08 08:50 | 37.65067 | 29.46636 | 27632 ft | 440 kts | 205° |
| 2026-05-08 08:50 | 37.62237 | 29.45287 | 27051 ft | 435 kts | 205° |
| 2026-05-08 08:50 | 37.59413 | 29.43942 | 26465 ft | 431 kts | 205° |
| 2026-05-08 08:51 | 37.56660 | 29.42632 | 25889 ft | 427 kts | 205° |
| 2026-05-08 08:51 | 37.53878 | 29.41308 | 25302 ft | 423 kts | 205° |
| 2026-05-08 08:51 | 37.51183 | 29.40026 | 24732 ft | 419 kts | 205° |
| 2026-05-08 08:51 | 37.48457 | 29.38730 | 24153 ft | 415 kts | 205° |
| 2026-05-08 08:52 | 37.45804 | 29.37472 | 23585 ft | 412 kts | 205° |
| 2026-05-08 08:52 | 37.43142 | 29.36210 | 23012 ft | 408 kts | 204° |
| 2026-05-08 08:52 | 37.40504 | 29.34962 | 22435 ft | 405 kts | 204° |
| 2026-05-08 08:52 | 37.37889 | 29.33725 | 21856 ft | 402 kts | 204° |
| 2026-05-08 08:53 | 37.35266 | 29.32465 | 21275 ft | 398 kts | 205° |
| 2026-05-08 08:53 | 37.32771 | 29.31034 | 20699 ft | 393 kts | 210° |
| 2026-05-08 08:53 | 37.30395 | 29.29343 | 20125 ft | 388 kts | 216° |
| 2026-05-08 08:53 | 37.28161 | 29.27503 | 19560 ft | 384 kts | 217° |
| 2026-05-08 08:54 | 37.25949 | 29.25634 | 18993 ft | 381 kts | 217° |
| 2026-05-08 08:54 | 37.23789 | 29.23807 | 18440 ft | 379 kts | 217° |
| 2026-05-08 08:54 | 37.21614 | 29.21976 | 17881 ft | 376 kts | 217° |
| 2026-05-08 08:54 | 37.19441 | 29.20152 | 17327 ft | 373 kts | 217° |
| 2026-05-08 08:55 | 37.17318 | 29.18374 | 16780 ft | 370 kts | 217° |
| 2026-05-08 08:55 | 37.15173 | 29.16582 | 16219 ft | 367 kts | 217° |
| 2026-05-08 08:55 | 37.13086 | 29.14842 | 15724 ft | 361 kts | 217° |
| 2026-05-08 08:55 | 37.11032 | 29.13133 | 15305 ft | 355 kts | 217° |
| 2026-05-08 08:56 | 37.08987 | 29.11432 | 14749 ft | 353 kts | 217° |
| 2026-05-08 08:56 | 37.06949 | 29.09736 | 14193 ft | 351 kts | 217° |
| 2026-05-08 08:56 | 37.04928 | 29.08055 | 13638 ft | 349 kts | 217° |
| 2026-05-08 08:56 | 37.02924 | 29.06390 | 13082 ft | 347 kts | 217° |
| 2026-05-08 08:57 | 37.01006 | 29.04583 | 12525 ft | 340 kts | 229° |
| 2026-05-08 08:57 | 36.99734 | 29.02200 | 11981 ft | 329 kts | 251° |
| 2026-05-08 08:57 | 36.99222 | 28.99482 | 11440 ft | 320 kts | 269° |
| 2026-05-08 08:57 | 36.99440 | 28.96754 | 10952 ft | 311 kts | 286° |
| 2026-05-08 08:58 | 37.00035 | 28.94255 | 10469 ft | 291 kts | 290° |
| 2026-05-08 08:58 | 37.00435 | 28.91869 | 9728 ft | 285 kts | 270° |
| 2026-05-08 08:58 | 36.99920 | 28.89518 | 8877 ft | 284 kts | 240° |
| 2026-05-08 08:58 | 36.98669 | 28.87691 | 8349 ft | 271 kts | 218° |
| 2026-05-08 08:59 | 36.97066 | 28.86621 | 7859 ft | 260 kts | 197° |
| 2026-05-08 08:59 | 36.95318 | 28.86209 | 7407 ft | 249 kts | 187° |
| 2026-05-08 08:59 | 36.93629 | 28.85969 | 7110 ft | 245 kts | 186° |
| 2026-05-08 08:59 | 36.91945 | 28.85733 | 6849 ft | 241 kts | 187° |
| 2026-05-08 09:00 | 36.90305 | 28.85480 | 6480 ft | 235 kts | 187° |
| 2026-05-08 09:00 | 36.88744 | 28.85211 | 6104 ft | 225 kts | 191° |
| 2026-05-08 09:00 | 36.87262 | 28.84757 | 5828 ft | 208 kts | 197° |
| 2026-05-08 09:00 | 36.85923 | 28.84260 | 5459 ft | 193 kts | 197° |
| 2026-05-08 09:01 | 36.84694 | 28.83810 | 5037 ft | 181 kts | 197° |
| 2026-05-08 09:01 | 36.83503 | 28.83393 | 4548 ft | 178 kts | 196° |
| 2026-05-08 09:01 | 36.82326 | 28.82991 | 4076 ft | 175 kts | 196° |
| 2026-05-08 09:01 | 36.81164 | 28.82599 | 3590 ft | 174 kts | 196° |
| 2026-05-08 09:02 | 36.80048 | 28.82119 | 3166 ft | 168 kts | 211° |
| 2026-05-08 09:02 | 36.79292 | 28.81087 | 2789 ft | 160 kts | 242° |
| 2026-05-08 09:02 | 36.79153 | 28.79770 | 2412 ft | 153 kts | 287° |
| 2026-05-08 09:02 | 36.79821 | 28.78849 | 2173 ft | 140 kts | 339° |
| 2026-05-08 09:03 | 36.80698 | 28.78969 | 2086 ft | 130 kts | 38° |
| 2026-05-08 09:03 | 36.81134 | 28.79922 | 2064 ft | 128 kts | 89° |
| 2026-05-08 09:03 | 36.80862 | 28.80943 | 1868 ft | 126 kts | 139° |
| 2026-05-08 09:03 | 36.80069 | 28.81290 | 1629 ft | 122 kts | 179° |
| 2026-05-08 09:04 | 36.79241 | 28.81256 | 1513 ft | 119 kts | 183° |
| 2026-05-08 09:04 | 36.78409 | 28.81222 | 1408 ft | 118 kts | 183° |
| 2026-05-08 09:04 | 36.77599 | 28.81201 | 1261 ft | 117 kts | 184° |
| 2026-05-08 09:04 | 36.76785 | 28.81093 | 1123 ft | 117 kts | 193° |
| 2026-05-08 09:05 | 36.76000 | 28.80857 | 980 ft | 117 kts | 195° |
| 2026-05-08 09:05 | 36.75219 | 28.80585 | 744 ft | 116 kts | 194° |
| 2026-05-08 09:05 | 36.74433 | 28.80323 | 524 ft | 116 kts | 195° |
| 2026-05-08 09:05 | 36.73664 | 28.80056 | 327 ft | 115 kts | 194° |
| 2026-05-08 09:06 | 36.72884 | 28.79798 | 141 ft | 115 kts | 197° |
| 2026-05-08 09:06 | 36.72125 | 28.79534 | 32 ft | 109 kts | 197° |
| 2026-05-08 09:06 | 36.71605 | 28.79353 | 28 ft | 43 kts | 196° |
| 2026-05-08 09:06 | 36.71329 | 28.79261 | 28 ft | 38 kts | 196° |
| 2026-05-08 09:07 | 36.71089 | 28.79177 | 28 ft | 34 kts | 195° |
| 2026-05-08 09:07 | 36.70871 | 28.79114 | 28 ft | 30 kts | 189° |
| 2026-05-08 09:07 | 36.70693 | 28.79027 | 28 ft | 25 kts | 216° |
| 2026-05-08 09:07 | 36.70584 | 28.78888 | 28 ft | 22 kts | 254° |
| 2026-05-08 09:08 | 36.70687 | 28.78826 | 28 ft | 20 kts | 15° |
| 2026-05-08 09:08 | 36.70826 | 28.78873 | 28 ft | 21 kts | 15° |
| 2026-05-08 09:08 | 36.70970 | 28.78921 | 28 ft | 21 kts | 15° |
| 2026-05-08 09:08 | 36.71128 | 28.78980 | 28 ft | 25 kts | 16° |
| 2026-05-08 09:09 | 36.71291 | 28.79027 | 28 ft | 19 kts | 351° |
| 2026-05-08 09:09 | 36.71353 | 28.78897 | 28 ft | 18 kts | 289° |
| 2026-05-08 09:09 | 36.71450 | 28.78873 | 28 ft | 18 kts | 15° |
| 2026-05-08 09:09 | 36.71567 | 28.78913 | 28 ft | 14 kts | 10° |
| 2026-05-08 09:10 | 36.71606 | 28.78866 | 28 ft | 4 kts | 293° |
| 2026-05-08 09:10 | 36.71613 | 28.78834 | 28 ft | 0 kts | 285° |